Time;durP1;ratioP1;P1;durP2;ratioP2;P2;SDS_P1;SDS_P2;PMS_P1;PMS_P2;Temp;Humidity;BMP_temperature;BMP_pressure;BME280_temperature;BME280_humidity;BME280_pressure;Samples;Min_cycle;Max_cycle;Signal;HPM_P1;HPM_P2
2022/11/21 00:00:14;;;;;;;37.60;20.57;;;;;;;;;;5008425;28;20187;-83
2022/11/21 00:02:39;;;;;;;39.40;21.57;;;;;;;;;;5009701;28;20568;-83
2022/11/21 00:05:04;;;;;;;36.97;20.70;;;;;;;;;;5010167;28;20230;-83
2022/11/21 00:07:29;;;;;;;39.97;24.00;;;;;;;;;;5009249;28;20266;-82
2022/11/21 00:09:54;;;;;;;42.03;24.37;;;;;;;;;;5006779;28;20191;-82
2022/11/21 00:12:20;;;;;;;41.67;23.87;;;;;;;;;;5008132;28;20199;-82
2022/11/21 00:14:45;;;;;;;43.37;23.10;;;;;;;;;;5001439;28;20686;-82
2022/11/21 00:17:10;;;;;;;47.10;24.03;;;;;;;;;;5004964;28;20227;-83
2022/11/21 00:19:35;;;;;;;46.50;24.33;;;;;;;;;;5009728;28;20263;-82
2022/11/21 00:22:00;;;;;;;39.30;24.03;;;;;;;;;;4986980;28;20191;-82
2022/11/21 00:24:25;;;;;;;42.27;23.63;;;;;;;;;;5007946;28;20180;-82
2022/11/21 00:26:51;;;;;;;47.80;26.17;;;;;;;;;;4998561;28;20216;-82
2022/11/21 00:29:16;;;;;;;44.43;25.17;;;;;;;;;;4995875;28;20183;-82
2022/11/21 00:31:41;;;;;;;49.97;26.27;;;;;;;;;;5014936;28;20609;-82
2022/11/21 00:34:08;;;;;;;51.13;26.27;;;;;;;;;;4999220;28;20179;-82
2022/11/21 00:36:33;;;;;;;51.73;25.43;;;;;;;;;;5013525;28;20696;-82
2022/11/21 00:38:58;;;;;;;48.53;24.80;;;;;;;;;;5009869;28;20179;-82
2022/11/21 00:41:23;;;;;;;48.93;24.67;;;;;;;;;;4991597;28;20265;-82
2022/11/21 00:43:48;;;;;;;58.07;24.50;;;;;;;;;;5007842;28;20266;-82
2022/11/21 00:46:17;;;;;;;47.83;23.97;;;;;;;;;;4997368;28;20204;-82
2022/11/21 00:48:42;;;;;;;54.63;23.30;;;;;;;;;;5009441;28;20184;-83
2022/11/21 00:51:07;;;;;;;43.47;22.40;;;;;;;;;;5005156;28;20228;-82
2022/11/21 00:53:32;;;;;;;45.20;23.43;;;;;;;;;;5003977;28;20186;-83
2022/11/21 00:55:58;;;;;;;44.40;23.50;;;;;;;;;;4990937;28;20182;-83
2022/11/21 00:58:23;;;;;;;49.10;22.93;;;;;;;;;;5004552;28;20203;-83
2022/11/21 01:00:48;;;;;;;45.17;23.80;;;;;;;;;;4989025;28;20210;-82
2022/11/21 01:03:14;;;;;;;43.20;21.17;;;;;;;;;;4999212;28;20273;-83
2022/11/21 01:05:39;;;;;;;53.93;23.20;;;;;;;;;;5006076;28;20176;-82
2022/11/21 01:08:04;;;;;;;42.20;21.93;;;;;;;;;;5005833;28;20219;-82
2022/11/21 01:10:29;;;;;;;48.13;23.13;;;;;;;;;;4990424;28;20213;-83
2022/11/21 01:12:55;;;;;;;48.03;21.80;;;;;;;;;;5006950;28;20176;-82
2022/11/21 01:15:20;;;;;;;43.27;21.67;;;;;;;;;;5007301;28;20588;-82
2022/11/21 01:17:45;;;;;;;46.13;23.03;;;;;;;;;;4989976;28;20203;-82
2022/11/21 01:20:11;;;;;;;47.77;23.77;;;;;;;;;;4989582;28;20186;-82
2022/11/21 01:22:36;;;;;;;45.73;22.67;;;;;;;;;;5006353;28;20184;-83
2022/11/21 01:25:02;;;;;;;50.80;22.83;;;;;;;;;;5007365;28;20420;-82
2022/11/21 01:27:27;;;;;;;48.03;23.37;;;;;;;;;;5006972;28;20219;-82
2022/11/21 01:29:52;;;;;;;50.80;25.43;;;;;;;;;;5007022;28;20239;-82
2022/11/21 01:32:17;;;;;;;45.77;23.23;;;;;;;;;;5006537;28;20251;-82
2022/11/21 01:34:43;;;;;;;48.07;22.27;;;;;;;;;;5004715;28;20175;-82
2022/11/21 01:37:08;;;;;;;50.27;22.93;;;;;;;;;;5005723;28;20208;-82
2022/11/21 01:39:33;;;;;;;43.33;22.67;;;;;;;;;;5006339;28;20171;-82
2022/11/21 01:41:58;;;;;;;45.17;23.90;;;;;;;;;;5005602;28;20409;-82
2022/11/21 01:44:25;;;;;;;46.70;23.17;;;;;;;;;;5004146;28;20198;-82
2022/11/21 01:46:51;;;;;;;51.93;25.07;;;;;;;;;;4990002;28;20226;-82
2022/11/21 01:49:31;;;;;;;54.03;23.70;;;;;;;;;;5006450;28;20183;-82
2022/11/21 01:51:56;;;;;;;45.30;21.07;;;;;;;;;;4998887;28;20183;-82
2022/11/21 01:54:30;;;;;;;40.87;20.77;;;;;;;;;;5005200;28;20202;-83
2022/11/21 01:56:59;;;;;;;48.20;21.13;;;;;;;;;;4987991;28;20234;-82
2022/11/21 01:59:29;;;;;;;41.07;21.07;;;;;;;;;;5005133;28;20191;-82
2022/11/21 02:01:55;;;;;;;46.47;22.97;;;;;;;;;;4988016;28;20214;-82
2022/11/21 02:04:23;;;;;;;43.63;21.77;;;;;;;;;;4986482;28;20633;-82
2022/11/21 02:06:48;;;;;;;50.23;23.53;;;;;;;;;;5005929;28;20200;-82
2022/11/21 02:09:13;;;;;;;51.23;25.37;;;;;;;;;;4997364;28;20182;-82
2022/11/21 02:11:41;;;;;;;42.53;21.97;;;;;;;;;;4983373;28;20179;-82
2022/11/21 02:14:06;;;;;;;49.00;24.10;;;;;;;;;;5002153;28;20215;-81
2022/11/21 02:16:33;;;;;;;44.17;23.27;;;;;;;;;;5004777;28;20187;-82
2022/11/21 02:18:58;;;;;;;48.60;22.80;;;;;;;;;;5003114;28;20194;-81
2022/11/21 02:21:23;;;;;;;46.23;23.27;;;;;;;;;;5005509;28;20246;-81
2022/11/21 02:23:56;;;;;;;48.80;23.03;;;;;;;;;;5006015;28;20175;-81
2022/11/21 02:26:21;;;;;;;52.83;23.17;;;;;;;;;;5007713;28;20257;-81
2022/11/21 02:28:47;;;;;;;64.40;22.17;;;;;;;;;;4987642;28;20255;-81
2022/11/21 02:31:12;;;;;;;43.20;22.13;;;;;;;;;;4987125;28;20180;-81
2022/11/21 02:33:37;;;;;;;60.63;21.07;;;;;;;;;;5004299;28;20636;-81
2022/11/21 02:36:03;;;;;;;48.63;21.00;;;;;;;;;;5005188;28;20192;-81
2022/11/21 02:38:28;;;;;;;39.67;21.43;;;;;;;;;;5006108;28;20230;-81
2022/11/21 02:40:56;;;;;;;61.47;24.47;;;;;;;;;;5004015;28;20191;-81
2022/11/21 02:43:23;;;;;;;51.63;21.53;;;;;;;;;;5004660;28;20281;-81
2022/11/21 02:45:48;;;;;;;50.33;21.23;;;;;;;;;;4988354;28;20175;-81
2022/11/21 02:48:14;;;;;;;48.67;20.60;;;;;;;;;;5005211;28;20234;-81
2022/11/21 02:50:40;;;;;;;47.63;20.10;;;;;;;;;;5004909;28;20200;-81
2022/11/21 02:53:06;;;;;;;50.33;22.17;;;;;;;;;;5002533;28;20183;-81
2022/11/21 02:55:31;;;;;;;44.47;19.97;;;;;;;;;;5003202;28;20183;-81
2022/11/21 02:57:56;;;;;;;39.80;19.70;;;;;;;;;;5003952;28;20196;-81
2022/11/21 03:00:22;;;;;;;38.83;19.43;;;;;;;;;;5006446;28;20199;-81
2022/11/21 03:02:47;;;;;;;45.33;20.83;;;;;;;;;;5003558;28;20207;-81
2022/11/21 03:05:14;;;;;;;43.80;20.97;;;;;;;;;;4998174;28;20183;-81
2022/11/21 03:07:39;;;;;;;48.47;21.60;;;;;;;;;;5003385;28;20209;-81
2022/11/21 03:10:05;;;;;;;52.97;21.07;;;;;;;;;;5002896;28;20236;-81
2022/11/21 03:12:30;;;;;;;49.87;21.00;;;;;;;;;;4985772;28;20286;-81
2022/11/21 03:14:55;;;;;;;49.77;21.33;;;;;;;;;;4987460;28;20188;-81
2022/11/21 03:17:20;;;;;;;40.70;20.40;;;;;;;;;;5005837;28;20227;-81
2022/11/21 03:19:45;;;;;;;43.53;21.40;;;;;;;;;;5009263;28;20534;-81
2022/11/21 03:22:12;;;;;;;60.63;23.03;;;;;;;;;;5006576;28;20199;-81
2022/11/21 03:24:37;;;;;;;48.57;20.27;;;;;;;;;;5007605;28;20882;-81
2022/11/21 03:27:02;;;;;;;72.97;21.07;;;;;;;;;;4989832;28;20243;-81
2022/11/21 03:29:27;;;;;;;47.13;20.10;;;;;;;;;;5007001;28;20172;-81
2022/11/21 03:31:52;;;;;;;71.07;22.87;;;;;;;;;;4989933;28;20186;-81
2022/11/21 03:34:18;;;;;;;44.00;20.50;;;;;;;;;;4999662;28;20183;-81
2022/11/21 03:36:43;;;;;;;64.77;22.17;;;;;;;;;;5006999;28;20199;-81
2022/11/21 03:39:08;;;;;;;52.23;21.30;;;;;;;;;;4990047;28;20188;-81
2022/11/21 03:41:34;;;;;;;40.00;19.70;;;;;;;;;;4998565;28;20192;-81
2022/11/21 03:44:02;;;;;;;44.97;21.17;;;;;;;;;;5008498;28;20278;-81
2022/11/21 03:46:27;;;;;;;45.87;23.07;;;;;;;;;;5006873;28;20195;-81
2022/11/21 03:48:53;;;;;;;45.03;21.93;;;;;;;;;;5008432;28;20184;-81
2022/11/21 03:51:18;;;;;;;43.10;21.87;;;;;;;;;;4993864;28;20618;-81
2022/11/21 03:53:43;;;;;;;48.10;22.63;;;;;;;;;;4988433;28;20600;-81
2022/11/21 03:56:08;;;;;;;38.50;20.47;;;;;;;;;;5003787;28;20202;-81
2022/11/21 03:58:34;;;;;;;53.77;24.13;;;;;;;;;;5003034;28;20289;-81
2022/11/21 04:00:59;;;;;;;61.77;22.57;;;;;;;;;;5008222;28;20214;-81
2022/11/21 04:03:24;;;;;;;47.43;21.90;;;;;;;;;;5006622;28;20188;-81
2022/11/21 04:05:49;;;;;;;41.37;20.73;;;;;;;;;;5012200;28;20176;-80
2022/11/21 04:08:14;;;;;;;49.97;21.53;;;;;;;;;;5017168;28;20203;-80
2022/11/21 04:10:45;;;;;;;45.10;21.33;;;;;;;;;;5018074;28;20176;-81
2022/11/21 04:13:10;;;;;;;43.20;20.93;;;;;;;;;;5018521;28;20227;-81
2022/11/21 04:15:36;;;;;;;45.40;21.77;;;;;;;;;;5016740;28;20190;-81
2022/11/21 04:18:01;;;;;;;49.97;21.27;;;;;;;;;;5018077;28;20376;-81
2022/11/21 04:20:26;;;;;;;57.33;21.30;;;;;;;;;;5000014;28;20195;-81
2022/11/21 04:22:51;;;;;;;51.17;21.83;;;;;;;;;;4999915;28;20255;-80
2022/11/21 04:25:16;;;;;;;41.53;20.53;;;;;;;;;;5014820;28;20251;-81
2022/11/21 04:27:42;;;;;;;50.93;22.17;;;;;;;;;;5017995;28;20275;-81
2022/11/21 04:30:07;;;;;;;53.83;20.27;;;;;;;;;;5015668;28;20187;-82
2022/11/21 04:32:32;;;;;;;65.57;21.53;;;;;;;;;;5015825;28;20180;-81
2022/11/21 04:34:57;;;;;;;46.90;21.27;;;;;;;;;;5001154;28;20195;-81
2022/11/21 04:37:23;;;;;;;45.60;23.30;;;;;;;;;;5014233;28;20211;-81
2022/11/21 04:39:48;;;;;;;50.03;21.30;;;;;;;;;;5011427;28;20209;-81
2022/11/21 04:42:13;;;;;;;74.43;23.30;;;;;;;;;;5007582;28;20180;-82
2022/11/21 04:44:38;;;;;;;45.60;22.07;;;;;;;;;;5011917;28;20262;-81
2022/11/21 04:47:03;;;;;;;47.13;21.53;;;;;;;;;;4991587;28;20216;-81
2022/11/21 04:49:28;;;;;;;43.07;20.23;;;;;;;;;;5007998;28;20241;-81
2022/11/21 04:51:54;;;;;;;62.57;23.13;;;;;;;;;;5005836;28;20188;-81
2022/11/21 04:54:19;;;;;;;61.23;21.17;;;;;;;;;;5006719;28;20180;-83
2022/11/21 04:56:44;;;;;;;61.57;22.50;;;;;;;;;;5004430;28;20199;-82
2022/11/21 04:59:11;;;;;;;53.07;22.73;;;;;;;;;;5000033;28;20633;-82
2022/11/21 05:01:36;;;;;;;57.10;21.97;;;;;;;;;;5009032;28;20206;-82
2022/11/21 05:04:01;;;;;;;50.13;22.50;;;;;;;;;;4999251;28;20192;-82
2022/11/21 05:06:27;;;;;;;47.87;20.90;;;;;;;;;;5008289;28;20200;-82
2022/11/21 05:08:52;;;;;;;48.23;20.67;;;;;;;;;;4992669;28;20175;-82
2022/11/21 05:14:01;;;;;;;44.77;19.87;;;;;;;;;;5007654;28;20182;-82
2022/11/21 05:16:26;;;;;;;48.27;19.83;;;;;;;;;;5007755;28;20235;-82
2022/11/21 05:18:51;;;;;;;44.17;20.93;;;;;;;;;;5007631;28;20560;-82
2022/11/21 05:21:16;;;;;;;41.93;19.87;;;;;;;;;;5005735;28;20187;-82
2022/11/21 05:23:41;;;;;;;49.27;20.60;;;;;;;;;;5007425;28;20187;-83
2022/11/21 05:26:07;;;;;;;41.10;20.17;;;;;;;;;;4980059;28;20188;-82
2022/11/21 05:28:32;;;;;;;44.27;21.47;;;;;;;;;;4983586;28;20212;-83
2022/11/21 05:30:57;;;;;;;61.73;20.70;;;;;;;;;;5008531;28;20187;-83
2022/11/21 05:33:22;;;;;;;40.83;19.63;;;;;;;;;;5005550;28;20202;-82
2022/11/21 05:35:47;;;;;;;41.70;20.30;;;;;;;;;;4992348;28;20176;-83
2022/11/21 05:38:13;;;;;;;41.50;20.43;;;;;;;;;;4990161;28;20203;-83
2022/11/21 05:40:38;;;;;;;42.80;20.13;;;;;;;;;;5010707;28;20179;-83
2022/11/21 05:45:48;;;;;;;47.23;18.47;;;;;;;;;;5009705;28;20198;-83
2022/11/21 05:48:13;;;;;;;56.73;18.30;;;;;;;;;;4990821;28;20307;-83
2022/11/21 05:50:38;;;;;;;46.90;18.87;;;;;;;;;;5008032;28;20180;-83
2022/11/21 05:53:03;;;;;;;42.97;17.67;;;;;;;;;;5005155;28;20673;-83
2022/11/21 05:55:29;;;;;;;48.80;19.17;;;;;;;;;;4991383;28;20171;-83
2022/11/21 05:57:56;;;;;;;40.87;19.23;;;;;;;;;;4987419;28;20215;-83
2022/11/21 06:00:22;;;;;;;50.60;19.50;;;;;;;;;;4989224;28;20176;-83
2022/11/21 06:05:31;;;;;;;45.17;18.93;;;;;;;;;;5007076;28;20275;-83
2022/11/21 06:07:56;;;;;;;65.10;17.80;;;;;;;;;;4989612;28;20211;-82
2022/11/21 06:10:21;;;;;;;48.80;19.13;;;;;;;;;;5006871;28;20187;-83
2022/11/21 06:12:46;;;;;;;48.97;18.90;;;;;;;;;;5005289;28;20175;-83
2022/11/21 06:15:12;;;;;;;37.90;18.27;;;;;;;;;;4988024;28;20612;-84
2022/11/21 06:17:37;;;;;;;74.03;19.47;;;;;;;;;;5007315;28;20217;-81
2022/11/21 06:20:02;;;;;;;46.67;18.97;;;;;;;;;;5007365;28;20183;-81
2022/11/21 06:22:27;;;;;;;54.00;19.53;;;;;;;;;;5005994;28;20247;-81
2022/11/21 06:24:53;;;;;;;36.97;18.03;;;;;;;;;;4989203;28;20215;-81
2022/11/21 06:27:18;;;;;;;41.63;18.27;;;;;;;;;;4996360;28;20219;-81
2022/11/21 06:29:43;;;;;;;56.37;20.10;;;;;;;;;;5006681;28;20180;-81
2022/11/21 06:32:08;;;;;;;41.80;18.73;;;;;;;;;;4988105;28;20183;-81
2022/11/21 06:34:33;;;;;;;47.53;19.17;;;;;;;;;;5004235;28;20171;-84
2022/11/21 06:36:58;;;;;;;53.80;19.43;;;;;;;;;;5003803;28;20208;-81
2022/11/21 06:39:24;;;;;;;60.63;20.37;;;;;;;;;;5004576;28;20255;-82
2022/11/21 06:41:49;;;;;;;50.87;19.17;;;;;;;;;;5002882;28;20198;-81
2022/11/21 06:44:18;;;;;;;45.97;19.83;;;;;;;;;;5005102;28;20191;-82
2022/11/21 06:46:43;;;;;;;44.57;17.77;;;;;;;;;;4999211;28;20271;-81
2022/11/21 06:49:09;;;;;;;42.13;17.93;;;;;;;;;;5005545;28;20607;-82
2022/11/21 06:51:34;;;;;;;40.57;18.67;;;;;;;;;;5003761;28;20194;-82
2022/11/21 06:53:59;;;;;;;49.87;19.37;;;;;;;;;;5007908;28;20176;-82
2022/11/21 06:56:25;;;;;;;49.40;19.23;;;;;;;;;;5005768;28;20214;-82
2022/11/21 06:58:50;;;;;;;41.33;20.23;;;;;;;;;;4997060;28;20183;-81
2022/11/21 07:01:16;;;;;;;62.00;20.43;;;;;;;;;;4982547;28;20191;-81
2022/11/21 07:03:41;;;;;;;39.07;18.30;;;;;;;;;;5008436;28;20168;-81
2022/11/21 07:06:06;;;;;;;49.63;18.30;;;;;;;;;;4991908;28;20223;-81
2022/11/21 07:08:33;;;;;;;48.07;17.63;;;;;;;;;;5007742;28;20223;-82
2022/11/21 07:11:02;;;;;;;52.80;17.50;;;;;;;;;;4989094;28;20206;-82
2022/11/21 07:13:27;;;;;;;61.50;19.23;;;;;;;;;;5007095;28;20168;-83
2022/11/21 07:15:53;;;;;;;52.07;16.80;;;;;;;;;;5009147;28;20594;-81
2022/11/21 07:18:19;;;;;;;39.93;17.13;;;;;;;;;;5008945;28;20195;-83
2022/11/21 07:20:45;;;;;;;43.53;16.93;;;;;;;;;;5008078;28;20195;-81
2022/11/21 07:23:10;;;;;;;42.60;16.03;;;;;;;;;;5008927;28;20196;-83
2022/11/21 07:25:35;;;;;;;38.13;17.70;;;;;;;;;;5003423;28;20225;-81
2022/11/21 07:28:01;;;;;;;32.97;16.93;;;;;;;;;;5003285;28;20243;-81
2022/11/21 07:30:26;;;;;;;45.53;18.67;;;;;;;;;;5008353;28;20183;-84
2022/11/21 07:32:59;;;;;;;36.23;17.57;;;;;;;;;;5005529;28;20598;-84
2022/11/21 07:35:24;;;;;;;45.23;18.03;;;;;;;;;;4991541;28;20186;-83
2022/11/21 07:37:49;;;;;;;41.47;17.87;;;;;;;;;;5008885;28;20205;-83
2022/11/21 07:40:15;;;;;;;39.53;15.93;;;;;;;;;;5009559;28;20180;-82
2022/11/21 07:42:40;;;;;;;41.37;17.63;;;;;;;;;;4989152;28;20179;-83
2022/11/21 07:45:05;;;;;;;43.63;18.90;;;;;;;;;;5007920;28;20207;-82
2022/11/21 07:47:30;;;;;;;37.53;18.30;;;;;;;;;;4999911;28;20207;-83
2022/11/21 07:49:56;;;;;;;42.23;18.70;;;;;;;;;;5008892;28;20184;-83
2022/11/21 07:52:21;;;;;;;38.13;16.87;;;;;;;;;;5008422;28;20190;-83
2022/11/21 07:54:46;;;;;;;35.90;18.50;;;;;;;;;;5009100;28;20254;-83
2022/11/21 07:57:11;;;;;;;41.10;18.83;;;;;;;;;;5005773;28;20211;-83
2022/11/21 07:59:37;;;;;;;34.47;15.40;;;;;;;;;;4989701;28;20187;-80
2022/11/21 08:02:02;;;;;;;38.03;17.20;;;;;;;;;;4989205;28;20250;-83
2022/11/21 08:04:27;;;;;;;34.43;18.40;;;;;;;;;;5008775;28;20272;-83
2022/11/21 08:06:53;;;;;;;38.20;18.17;;;;;;;;;;4999573;28;20234;-84
2022/11/21 08:09:18;;;;;;;37.90;16.87;;;;;;;;;;5004861;28;20187;-83
2022/11/21 08:11:43;;;;;;;39.07;18.50;;;;;;;;;;5008757;28;20179;-82
2022/11/21 08:14:08;;;;;;;30.90;16.13;;;;;;;;;;4994802;28;20187;-83
2022/11/21 08:16:33;;;;;;;30.33;15.30;;;;;;;;;;5009603;28;20576;-82
2022/11/21 08:18:59;;;;;;;33.00;16.70;;;;;;;;;;5007484;28;20172;-82
2022/11/21 08:21:24;;;;;;;31.07;16.23;;;;;;;;;;4997431;28;20203;-83
2022/11/21 08:23:49;;;;;;;31.27;17.20;;;;;;;;;;5015514;28;20194;-82
2022/11/21 08:26:15;;;;;;;31.97;16.90;;;;;;;;;;5003476;28;20522;-83
2022/11/21 08:28:40;;;;;;;32.90;17.33;;;;;;;;;;5005400;28;20200;-83
2022/11/21 08:31:05;;;;;;;30.23;16.17;;;;;;;;;;5006207;28;20180;-83
2022/11/21 08:33:31;;;;;;;32.77;16.87;;;;;;;;;;4990427;28;20615;-83
2022/11/21 08:35:56;;;;;;;26.80;15.50;;;;;;;;;;5005905;28;20186;-83
2022/11/21 08:38:22;;;;;;;27.93;17.20;;;;;;;;;;5007251;28;20199;-80
2022/11/21 08:42:01;;;;;;;34.63;15.53;;;;;;;;;;5008140;28;20179;-81
2022/11/21 08:43:32;;;;;;;28.53;16.67;;;;;;;;;;5006666;28;20186;-81
2022/11/21 08:45:57;;;;;;;33.73;15.57;;;;;;;;;;5006507;28;20223;-80
2022/11/21 08:48:22;;;;;;;29.13;15.87;;;;;;;;;;4983371;28;20231;-80
2022/11/21 08:50:47;;;;;;;28.93;15.77;;;;;;;;;;5005384;28;20172;-81
2022/11/21 08:53:13;;;;;;;29.30;16.20;;;;;;;;;;5003597;28;20179;-81
2022/11/21 08:55:38;;;;;;;25.70;14.47;;;;;;;;;;5004148;28;20268;-81
2022/11/21 08:58:03;;;;;;;28.53;15.63;;;;;;;;;;5005048;28;20214;-83
2022/11/21 09:00:28;;;;;;;26.00;15.63;;;;;;;;;;5001830;28;20180;-81
2022/11/21 09:02:53;;;;;;;29.23;17.80;;;;;;;;;;5003114;28;20266;-80
2022/11/21 09:05:19;;;;;;;32.00;17.70;;;;;;;;;;5002235;28;20176;-80
2022/11/21 09:07:44;;;;;;;36.97;16.60;;;;;;;;;;5004605;28;20203;-81
2022/11/21 09:10:09;;;;;;;33.83;17.97;;;;;;;;;;4989590;28;20176;-83
2022/11/21 09:12:34;;;;;;;30.83;17.87;;;;;;;;;;5006120;28;20183;-81
2022/11/21 09:18:02;;;;;;;38.90;17.70;;;;;;;;;;5000661;28;20199;-83
2022/11/21 09:20:28;;;;;;;34.47;19.53;;;;;;;;;;5007089;28;20228;-83
2022/11/21 09:22:53;;;;;;;34.97;17.73;;;;;;;;;;4984894;28;20188;-83
2022/11/21 09:25:19;;;;;;;36.30;18.97;;;;;;;;;;5002893;28;20198;-81
2022/11/21 09:27:44;;;;;;;35.50;19.10;;;;;;;;;;5006113;28;20223;-83
2022/11/21 09:30:09;;;;;;;34.57;19.43;;;;;;;;;;5004897;28;20575;-82
2022/11/21 09:32:35;;;;;;;38.57;20.10;;;;;;;;;;4999506;28;20193;-80
2022/11/21 09:35:01;;;;;;;33.80;18.57;;;;;;;;;;5002210;28;20665;-80
2022/11/21 09:37:26;;;;;;;35.73;19.67;;;;;;;;;;4982065;28;20203;-83
2022/11/21 09:39:51;;;;;;;39.93;20.60;;;;;;;;;;4998115;28;20255;-83
2022/11/21 09:42:16;;;;;;;30.27;17.77;;;;;;;;;;4986503;28;20176;-82
2022/11/21 09:44:48;;;;;;;31.00;17.63;;;;;;;;;;5002293;28;20238;-83
2022/11/21 09:47:39;;;;;;;30.93;17.53;;;;;;;;;;4996075;28;20208;-82
2022/11/21 09:50:15;;;;;;;28.77;16.57;;;;;;;;;;4994163;28;20191;-82
2022/11/21 09:52:49;;;;;;;26.77;15.43;;;;;;;;;;5002371;28;20211;-82
2022/11/21 09:55:23;;;;;;;20.77;14.63;;;;;;;;;;5008300;28;20600;-82
2022/11/21 09:57:48;;;;;;;24.13;13.27;;;;;;;;;;5008229;28;20203;-82
2022/11/21 10:00:23;;;;;;;18.40;12.33;;;;;;;;;;5004005;28;20190;-82
2022/11/21 10:02:50;;;;;;;17.03;12.27;;;;;;;;;;4997296;28;20175;-81
2022/11/21 10:05:16;;;;;;;17.37;11.53;;;;;;;;;;4999972;28;20600;-83
2022/11/21 10:07:42;;;;;;;14.47;10.60;;;;;;;;;;4985739;28;20218;-82
2022/11/21 10:10:26;;;;;;;11.17;8.00;;;;;;;;;;5003287;28;20179;-82
2022/11/21 10:12:54;;;;;;;15.20;8.33;;;;;;;;;;5001931;28;20175;-81
2022/11/21 10:15:28;;;;;;;9.33;7.50;;;;;;;;;;5004527;28;20672;-81
2022/11/21 10:18:06;;;;;;;10.90;6.33;;;;;;;;;;4985547;28;20199;-82
2022/11/21 10:20:50;;;;;;;7.40;5.50;;;;;;;;;;4985359;28;20186;-82
2022/11/21 10:23:35;;;;;;;11.70;6.67;;;;;;;;;;5004204;28;20621;-82
2022/11/21 10:26:03;;;;;;;7.73;4.93;;;;;;;;;;5001504;28;20183;-81
2022/11/21 10:28:48;;;;;;;9.13;5.27;;;;;;;;;;4999428;28;20207;-81
2022/11/21 10:31:14;;;;;;;7.83;5.03;;;;;;;;;;5000759;28;20184;-81
2022/11/21 10:33:39;;;;;;;10.33;6.27;;;;;;;;;;5000303;28;20222;-81
2022/11/21 10:36:15;;;;;;;9.75;5.50;;;;;;;;;;4982986;28;20579;-81
2022/11/21 10:38:42;;;;;;;6.88;4.90;;;;;;;;;;5003400;28;20262;-81
2022/11/21 10:41:18;;;;;;;7.60;4.35;;;;;;;;;;5002043;28;20184;-81
2022/11/21 10:46:53;;;;;;;8.93;4.47;;;;;;;;;;4997656;28;20234;-81
2022/11/21 10:49:18;;;;;;;8.38;4.90;;;;;;;;;;4981491;28;20327;-80
2022/11/21 10:51:46;;;;;;;5.80;4.15;;;;;;;;;;5004192;28;20171;-80
2022/11/21 10:57:09;;;;;;;8.25;4.22;;;;;;;;;;4994435;28;20723;-80
2022/11/21 10:59:34;;;;;;;7.75;4.65;;;;;;;;;;4998381;28;20191;-80
2022/11/21 11:02:20;;;;;;;8.15;4.13;;;;;;;;;;5002940;28;20191;-80
2022/11/21 11:04:45;;;;;;;11.23;4.88;;;;;;;;;;5002852;28;20202;-80
2022/11/21 11:07:25;;;;;;;8.57;4.50;;;;;;;;;;5004745;28;20211;-81
2022/11/21 11:09:53;;;;;;;8.57;4.30;;;;;;;;;;5003493;28;20179;-80
2022/11/21 11:12:24;;;;;;;9.53;4.17;;;;;;;;;;4985545;28;20541;-81
2022/11/21 11:14:51;;;;;;;6.70;3.60;;;;;;;;;;5003475;28;20599;-80
2022/11/21 11:17:24;;;;;;;8.17;4.57;;;;;;;;;;5000166;28;20669;-80
2022/11/21 11:20:06;;;;;;;7.87;4.43;;;;;;;;;;4986545;28;20257;-80
2022/11/21 11:22:31;;;;;;;9.63;4.10;;;;;;;;;;5003714;28;20184;-80
2022/11/21 11:24:57;;;;;;;7.90;3.92;;;;;;;;;;4999296;28;20246;-80
2022/11/21 11:27:26;;;;;;;7.03;4.10;;;;;;;;;;5005309;28;20265;-80
2022/11/21 11:29:51;;;;;;;7.80;3.83;;;;;;;;;;4998710;28;20203;-80
2022/11/21 11:32:17;;;;;;;11.45;4.13;;;;;;;;;;4998224;28;20654;-79
2022/11/21 11:35:03;;;;;;;5.85;3.63;;;;;;;;;;4993130;28;22163;-79
2022/11/21 11:37:28;;;;;;;9.70;4.40;;;;;;;;;;4970574;28;20716;-79
2022/11/21 11:39:53;;;;;;;5.50;3.33;;;;;;;;;;5002781;28;20176;-80
2022/11/21 11:48:00;;;;;;;4.43;3.10;;;;;;;;;;5003134;28;20699;-79
2022/11/21 11:50:31;;;;;;;7.03;3.58;;;;;;;;;;4995970;28;20245;-79
2022/11/21 11:53:08;;;;;;;6.63;3.00;;;;;;;;;;4980060;28;20674;-79
2022/11/21 11:55:36;;;;;;;8.52;2.55;;;;;;;;;;5004639;28;20183;-79
2022/11/21 11:58:05;;;;;;;4.03;2.10;;;;;;;;;;5002027;28;20230;-79
2022/11/21 12:00:30;;;;;;;7.33;4.27;;;;;;;;;;4995640;28;20188;-80
2022/11/21 12:02:59;;;;;;;7.07;3.63;;;;;;;;;;4997212;28;20501;-80
2022/11/21 12:05:25;;;;;;;5.83;2.83;;;;;;;;;;4995758;28;20192;-79
2022/11/21 12:08:02;;;;;;;6.77;2.87;;;;;;;;;;4990847;28;20223;-79
2022/11/21 12:12:05;;;;;;;5.57;2.30;;;;;;;;;;4994278;28;20205;-80
2022/11/21 12:13:25;;;;;;;5.90;2.63;;;;;;;;;;4995837;28;20180;-80
2022/11/21 12:15:51;;;;;;;6.90;2.30;;;;;;;;;;4999985;28;20194;-80
2022/11/21 12:18:19;;;;;;;6.90;2.00;;;;;;;;;;5000173;28;20206;-79
2022/11/21 12:20:51;;;;;;;3.60;2.50;;;;;;;;;;4989983;28;20220;-80
2022/11/21 12:23:17;;;;;;;4.60;1.90;;;;;;;;;;4999144;28;20224;-80
2022/11/21 12:25:58;;;;;;;5.93;2.10;;;;;;;;;;4991428;28;20183;-79
2022/11/21 12:28:27;;;;;;;6.17;2.07;;;;;;;;;;4981258;28;20220;-80
2022/11/21 12:31:01;;;;;;;3.60;2.27;;;;;;;;;;4995708;28;20180;-80
2022/11/21 12:33:29;;;;;;;7.67;3.30;;;;;;;;;;4998728;28;20235;-79
2022/11/21 12:35:54;;;;;;;9.63;2.40;;;;;;;;;;4996205;28;20275;-80
2022/11/21 12:38:31;;;;;;;6.50;2.97;;;;;;;;;;4998353;28;20235;-80
2022/11/21 12:42:47;;;;;;;5.40;2.27;;;;;;;;;;4995236;28;20183;-79
2022/11/21 12:44:17;;;;;;;5.07;2.77;;;;;;;;;;5000707;28;20180;-79
2022/11/21 12:46:50;;;;;;;7.73;3.03;;;;;;;;;;4988705;28;20787;-79
2022/11/21 12:55:13;;;;;;;3.20;1.90;;;;;;;;;;4990001;28;20186;-79
2022/11/21 12:57:58;;;;;;;5.70;2.40;;;;;;;;;;4977491;28;20258;-79
2022/11/21 13:00:27;;;;;;;8.13;2.50;;;;;;;;;;5001379;28;20266;-79
2022/11/21 13:02:58;;;;;;;4.27;2.40;;;;;;;;;;4997516;28;20274;-79
2022/11/21 13:05:25;;;;;;;3.93;2.13;;;;;;;;;;4997311;28;20552;-79
2022/11/21 13:07:52;;;;;;;7.10;2.73;;;;;;;;;;5006994;28;20212;-80
2022/11/21 13:10:17;;;;;;;9.40;3.83;;;;;;;;;;5007834;28;20234;-79
2022/11/21 13:12:42;;;;;;;4.63;2.53;;;;;;;;;;5003623;28;20176;-79
2022/11/21 13:15:20;;;;;;;4.20;2.67;;;;;;;;;;5001128;28;20194;-79
2022/11/21 13:17:49;;;;;;;5.97;3.13;;;;;;;;;;5006581;28;20222;-79
2022/11/21 13:20:21;;;;;;;8.07;2.63;;;;;;;;;;5006716;28;20183;-79
2022/11/21 13:22:47;;;;;;;5.20;3.03;;;;;;;;;;5001824;28;20188;-79
2022/11/21 13:25:25;;;;;;;8.93;3.37;;;;;;;;;;5001456;28;20234;-79
2022/11/21 13:27:51;;;;;;;6.00;2.60;;;;;;;;;;5003674;28;20229;-79
2022/11/21 13:30:17;;;;;;;5.37;3.27;;;;;;;;;;5003921;28;20215;-79
2022/11/21 13:32:43;;;;;;;6.83;2.40;;;;;;;;;;4986007;28;20176;-79
2022/11/21 13:35:15;;;;;;;8.13;2.70;;;;;;;;;;5004960;28;20180;-79
2022/11/21 13:38:00;;;;;;;6.00;2.73;;;;;;;;;;5003978;28;20198;-79
2022/11/21 13:40:25;;;;;;;10.37;5.53;;;;;;;;;;4986544;28;20187;-81
2022/11/21 13:43:10;;;;;;;6.30;2.90;;;;;;;;;;4998219;28;20198;-79
2022/11/21 13:45:39;;;;;;;7.73;2.93;;;;;;;;;;5003971;28;20183;-79
2022/11/21 13:48:15;;;;;;;10.13;3.63;;;;;;;;;;5004668;28;20821;-79
2022/11/21 13:50:53;;;;;;;4.07;2.73;;;;;;;;;;5004517;28;20210;-80
2022/11/21 13:53:37;;;;;;;8.60;3.13;;;;;;;;;;4986177;28;20206;-79
2022/11/21 13:56:05;;;;;;;5.37;3.60;;;;;;;;;;5001583;28;20175;-79
2022/11/21 13:58:33;;;;;;;8.30;3.00;;;;;;;;;;4996853;28;20206;-79
2022/11/21 14:01:06;;;;;;;8.27;3.53;;;;;;;;;;4993532;28;20245;-79
2022/11/21 14:03:41;;;;;;;5.43;3.37;;;;;;;;;;5001849;28;20183;-79
2022/11/21 14:06:20;;;;;;;6.10;2.87;;;;;;;;;;5002389;28;20593;-79
2022/11/21 14:09:03;;;;;;;8.90;3.20;;;;;;;;;;5001257;28;20194;-79
2022/11/21 14:11:35;;;;;;;7.93;3.00;;;;;;;;;;4997914;28;20541;-79
2022/11/21 14:14:01;;;;;;;4.50;3.20;;;;;;;;;;4999987;28;20583;-79
2022/11/21 14:16:33;;;;;;;4.83;3.00;;;;;;;;;;5000866;28;20210;-79
2022/11/21 14:18:59;;;;;;;6.67;3.40;;;;;;;;;;4983824;28;20229;-79
2022/11/21 14:21:26;;;;;;;6.03;2.80;;;;;;;;;;5000749;28;20546;-79
2022/11/21 14:23:56;;;;;;;7.93;3.90;;;;;;;;;;4998833;28;20716;-79
2022/11/21 14:26:24;;;;;;;4.83;2.73;;;;;;;;;;4983395;28;20184;-79
2022/11/21 14:28:49;;;;;;;6.53;2.90;;;;;;;;;;5001419;28;20253;-78
2022/11/21 14:31:14;;;;;;;6.20;2.80;;;;;;;;;;5000355;28;20172;-79
2022/11/21 14:33:40;;;;;;;8.07;2.80;;;;;;;;;;5000716;28;20191;-79
2022/11/21 14:36:07;;;;;;;6.30;2.27;;;;;;;;;;4999297;28;20584;-79
2022/11/21 14:38:53;;;;;;;10.17;2.87;;;;;;;;;;4999923;28;20207;-78
2022/11/21 14:41:24;;;;;;;6.73;2.80;;;;;;;;;;4979304;28;20200;-79
2022/11/21 14:44:02;;;;;;;5.43;2.70;;;;;;;;;;5001326;28;20219;-79
2022/11/21 14:46:29;;;;;;;7.70;3.00;;;;;;;;;;4998513;28;20543;-80
2022/11/21 14:48:56;;;;;;;7.40;2.97;;;;;;;;;;4975764;28;20246;-80
2022/11/21 14:51:22;;;;;;;5.93;2.97;;;;;;;;;;4993902;28;20182;-80
2022/11/21 14:53:48;;;;;;;6.90;2.90;;;;;;;;;;4999494;28;20702;-80